Kishiwada, Japan
Current Conditions -  °F | °C
As of 6:30 AM on Sunday 23 Nov 2014 (Local Time) from RJBB Reporting Station
Few Clouds Few Clouds  
Wind Chill: 54°   Ceiling: Unl
Heat Index: 54°   Visibility: 5mi
Dew Point: 50°   Wind: 0mph
Humidity: 88%   Direction: NA
Pressure: 30.21"   Gusts: NA
Location:  34.47°N, 135.39°E
Report Text: RJBB 222130Z 00000KT 8000 FEW030 12/10 Q1023 NOSIG
Loading
Personal Weather Stations






























Interactive Weather Map New forecast layout! Learn more

10-Day Weather Forecast

Advertisements
Track Severe Weather on mobile